Portada
METAR-TAF:

METAR-TAF

Aeroports :

Najran, Aràbia Saudita

latitud: 17-37N, longitud: 044-25E, altitud: 1212 m

Observació

L'informe es va fer fa 1 hora i 11 minuts, a les 20:00 UTC
Vent calma
Temperatura 27°C
Humitat 24%
Pressió 1018 hPa
Visibilitat 10 km o més
sense núvols per sota de 1500 mi sense presència de cumulonimbus.

METAR: OENG 262000Z 00000KT CAVOK 27/05 Q1018 NOSIG

Hora: 00:11 (21:11 UTC)

Pronòstic

L'informe es va fer fa 10 hores i 11 minuts, a les 11:00 UTC
Pronòstic vàlid del 26 a les 12 UTC al 27 a les 18 UTC
Vent 14 kt del Nord-Est
Visibilitat: 8000 m
Escasses núvols a una alçada de 3000 ft
Temporalment
l' 26 a les 12 UTC al 26 a les 18 UTC
Visibilitat: 4000 m
Escasses núvols a una alçada de 2500 ft, Cumulonimbus.
torb alta de pols
Evolucionant progressivament
l' 26 a les 18 UTC al 26 a les 20 UTC
Vent 3 kt amb direcció variable

TAF: OENG 261100Z 2612/2718 04014KT 8000 FEW030 TEMPO 2612/2618 4000 BLDU FEW025CB BECMG 2618/2620 VRB03KT

Observacions i pronòstics meteorològics de més de 4000 aeroports (METAR i TAF).

Les estacions disponibles són els punts grocs i vermells al mapa.

Posi el ratolí al punt desitjat per veure el nom de l'estació.

Feu clic per veure les observacions i els pronòstics meteorològics.

Per canviar el mapa: feu clic els botons verds amb una creu de color negre per apropar; al botó verd amb un guió per allunyar la imatge; o en les fletxes verdes per a mapes adjacents.


METAR-TAF: